sensor_id;sensor_type;location;lat;lon;timestamp;P1;durP1;ratioP1;P2;durP2;ratioP2
33654;SDS011;19997;51.274;22.506;2023-05-10T00:01:15;9.55;;;3.80;;
33654;SDS011;19997;51.274;22.506;2023-05-10T00:03:42;9.82;;;4.57;;
33654;SDS011;19997;51.274;22.506;2023-05-10T00:06:10;9.48;;;4.47;;
33654;SDS011;19997;51.274;22.506;2023-05-10T00:08:37;8.18;;;3.85;;
33654;SDS011;19997;51.274;22.506;2023-05-10T00:11:04;5.25;;;3.13;;
33654;SDS011;19997;51.274;22.506;2023-05-10T00:13:31;7.28;;;3.58;;
33654;SDS011;19997;51.274;22.506;2023-05-10T00:16:00;13.70;;;3.60;;
33654;SDS011;19997;51.274;22.506;2023-05-10T00:18:27;6.47;;;3.63;;
33654;SDS011;19997;51.274;22.506;2023-05-10T00:20:54;9.60;;;4.15;;
33654;SDS011;19997;51.274;22.506;2023-05-10T00:23:21;10.95;;;3.95;;
33654;SDS011;19997;51.274;22.506;2023-05-10T00:25:48;9.60;;;3.63;;
33654;SDS011;19997;51.274;22.506;2023-05-10T00:28:15;7.53;;;3.65;;
33654;SDS011;19997;51.274;22.506;2023-05-10T00:30:42;6.57;;;3.28;;
33654;SDS011;19997;51.274;22.506;2023-05-10T00:33:10;7.75;;;4.20;;
33654;SDS011;19997;51.274;22.506;2023-05-10T00:35:38;7.57;;;4.03;;
33654;SDS011;19997;51.274;22.506;2023-05-10T00:38:05;11.68;;;3.80;;
33654;SDS011;19997;51.274;22.506;2023-05-10T00:40:32;8.10;;;4.15;;
33654;SDS011;19997;51.274;22.506;2023-05-10T00:43:04;7.22;;;3.72;;
33654;SDS011;19997;51.274;22.506;2023-05-10T00:45:31;4.57;;;3.03;;
33654;SDS011;19997;51.274;22.506;2023-05-10T00:47:59;11.02;;;3.00;;
33654;SDS011;19997;51.274;22.506;2023-05-10T00:50:30;10.02;;;3.78;;
33654;SDS011;19997;51.274;22.506;2023-05-10T00:52:58;6.60;;;3.83;;
33654;SDS011;19997;51.274;22.506;2023-05-10T00:55:26;7.85;;;3.60;;
33654;SDS011;19997;51.274;22.506;2023-05-10T00:57:54;6.45;;;3.72;;
33654;SDS011;19997;51.274;22.506;2023-05-10T01:00:21;6.90;;;3.67;;
33654;SDS011;19997;51.274;22.506;2023-05-10T01:03:08;5.97;;;3.40;;
33654;SDS011;19997;51.274;22.506;2023-05-10T01:05:37;8.88;;;3.22;;
33654;SDS011;19997;51.274;22.506;2023-05-10T01:08:04;5.50;;;3.08;;
33654;SDS011;19997;51.274;22.506;2023-05-10T01:10:33;7.53;;;3.38;;
33654;SDS011;19997;51.274;22.506;2023-05-10T01:13:01;6.60;;;3.90;;
33654;SDS011;19997;51.274;22.506;2023-05-10T01:15:29;6.35;;;3.38;;
33654;SDS011;19997;51.274;22.506;2023-05-10T01:17:57;9.20;;;3.63;;
33654;SDS011;19997;51.274;22.506;2023-05-10T01:20:24;7.95;;;3.03;;
33654;SDS011;19997;51.274;22.506;2023-05-10T01:34:39;8.45;;;3.40;;
33654;SDS011;19997;51.274;22.506;2023-05-10T01:37:17;8.68;;;3.85;;
33654;SDS011;19997;51.274;22.506;2023-05-10T01:39:49;5.63;;;3.08;;
33654;SDS011;19997;51.274;22.506;2023-05-10T01:42:25;5.18;;;3.17;;
33654;SDS011;19997;51.274;22.506;2023-05-10T01:44:58;11.60;;;3.55;;
33654;SDS011;19997;51.274;22.506;2023-05-10T01:47:35;13.88;;;2.90;;
33654;SDS011;19997;51.274;22.506;2023-05-10T01:50:07;5.15;;;3.03;;
33654;SDS011;19997;51.274;22.506;2023-05-10T01:52:41;13.60;;;3.72;;
33654;SDS011;19997;51.274;22.506;2023-05-10T01:55:13;5.93;;;3.25;;
33654;SDS011;19997;51.274;22.506;2023-05-10T01:57:43;10.18;;;3.30;;
33654;SDS011;19997;51.274;22.506;2023-05-10T02:00:13;6.68;;;3.13;;
33654;SDS011;19997;51.274;22.506;2023-05-10T02:02:44;5.45;;;3.40;;
33654;SDS011;19997;51.274;22.506;2023-05-10T02:05:13;7.13;;;3.53;;
33654;SDS011;19997;51.274;22.506;2023-05-10T02:07:42;6.50;;;3.20;;
33654;SDS011;19997;51.274;22.506;2023-05-10T02:10:11;10.15;;;3.30;;
33654;SDS011;19997;51.274;22.506;2023-05-10T02:12:41;6.82;;;3.28;;
33654;SDS011;19997;51.274;22.506;2023-05-10T02:15:10;10.55;;;3.10;;
33654;SDS011;19997;51.274;22.506;2023-05-10T02:17:39;8.73;;;2.80;;
33654;SDS011;19997;51.274;22.506;2023-05-10T02:20:10;14.07;;;3.70;;
33654;SDS011;19997;51.274;22.506;2023-05-10T02:22:38;9.48;;;3.35;;
33654;SDS011;19997;51.274;22.506;2023-05-10T02:25:08;8.77;;;3.05;;
33654;SDS011;19997;51.274;22.506;2023-05-10T02:27:37;9.95;;;3.80;;
33654;SDS011;19997;51.274;22.506;2023-05-10T02:30:07;7.80;;;3.03;;
33654;SDS011;19997;51.274;22.506;2023-05-10T02:32:36;10.75;;;3.20;;
33654;SDS011;19997;51.274;22.506;2023-05-10T02:35:06;5.40;;;3.40;;
33654;SDS011;19997;51.274;22.506;2023-05-10T02:37:34;6.28;;;3.13;;
33654;SDS011;19997;51.274;22.506;2023-05-10T02:40:03;5.20;;;2.92;;
33654;SDS011;19997;51.274;22.506;2023-05-10T02:42:35;12.32;;;3.42;;
33654;SDS011;19997;51.274;22.506;2023-05-10T02:45:05;6.75;;;3.70;;
33654;SDS011;19997;51.274;22.506;2023-05-10T02:47:37;4.43;;;2.60;;
33654;SDS011;19997;51.274;22.506;2023-05-10T02:50:06;9.98;;;3.00;;
33654;SDS011;19997;51.274;22.506;2023-05-10T02:52:37;8.35;;;3.38;;
33654;SDS011;19997;51.274;22.506;2023-05-10T02:55:07;7.03;;;3.00;;
33654;SDS011;19997;51.274;22.506;2023-05-10T02:57:40;4.63;;;2.97;;
33654;SDS011;19997;51.274;22.506;2023-05-10T03:00:10;6.05;;;3.08;;
33654;SDS011;19997;51.274;22.506;2023-05-10T03:02:38;8.07;;;3.70;;
33654;SDS011;19997;51.274;22.506;2023-05-10T03:05:07;12.45;;;3.85;;
33654;SDS011;19997;51.274;22.506;2023-05-10T03:07:35;3.67;;;2.65;;
33654;SDS011;19997;51.274;22.506;2023-05-10T03:10:02;5.85;;;3.00;;
33654;SDS011;19997;51.274;22.506;2023-05-10T03:12:33;7.93;;;3.55;;
33654;SDS011;19997;51.274;22.506;2023-05-10T03:15:11;10.98;;;3.38;;
33654;SDS011;19997;51.274;22.506;2023-05-10T03:17:46;8.77;;;2.92;;
33654;SDS011;19997;51.274;22.506;2023-05-10T03:20:20;6.55;;;3.30;;
33654;SDS011;19997;51.274;22.506;2023-05-10T03:22:50;11.13;;;4.13;;
33654;SDS011;19997;51.274;22.506;2023-05-10T03:25:20;9.38;;;4.05;;
33654;SDS011;19997;51.274;22.506;2023-05-10T03:27:50;8.18;;;3.53;;
33654;SDS011;19997;51.274;22.506;2023-05-10T03:30:18;7.35;;;3.55;;
33654;SDS011;19997;51.274;22.506;2023-05-10T03:32:46;6.05;;;3.80;;
33654;SDS011;19997;51.274;22.506;2023-05-10T03:35:16;11.50;;;4.37;;
33654;SDS011;19997;51.274;22.506;2023-05-10T03:37:44;8.30;;;3.17;;
33654;SDS011;19997;51.274;22.506;2023-05-10T03:40:12;9.73;;;3.65;;
33654;SDS011;19997;51.274;22.506;2023-05-10T03:42:41;6.47;;;3.30;;
33654;SDS011;19997;51.274;22.506;2023-05-10T03:45:08;7.75;;;3.70;;
33654;SDS011;19997;51.274;22.506;2023-05-10T03:47:36;8.38;;;3.90;;
33654;SDS011;19997;51.274;22.506;2023-05-10T03:50:03;8.43;;;3.78;;
33654;SDS011;19997;51.274;22.506;2023-05-10T03:52:33;8.75;;;3.58;;
33654;SDS011;19997;51.274;22.506;2023-05-10T03:55:00;8.88;;;3.92;;
33654;SDS011;19997;51.274;22.506;2023-05-10T03:57:28;11.18;;;3.47;;
33654;SDS011;19997;51.274;22.506;2023-05-10T04:00:01;9.65;;;3.90;;
33654;SDS011;19997;51.274;22.506;2023-05-10T04:02:49;6.25;;;2.88;;
33654;SDS011;19997;51.274;22.506;2023-05-10T04:05:18;7.85;;;3.42;;
33654;SDS011;19997;51.274;22.506;2023-05-10T04:07:47;6.95;;;3.92;;
33654;SDS011;19997;51.274;22.506;2023-05-10T04:10:15;7.88;;;4.15;;
33654;SDS011;19997;51.274;22.506;2023-05-10T04:12:42;10.50;;;3.55;;
33654;SDS011;19997;51.274;22.506;2023-05-10T04:15:10;6.35;;;3.20;;
33654;SDS011;19997;51.274;22.506;2023-05-10T04:17:47;6.15;;;3.55;;
33654;SDS011;19997;51.274;22.506;2023-05-10T04:20:15;9.40;;;3.55;;
33654;SDS011;19997;51.274;22.506;2023-05-10T04:22:43;9.07;;;3.42;;
33654;SDS011;19997;51.274;22.506;2023-05-10T04:25:14;15.65;;;4.10;;
33654;SDS011;19997;51.274;22.506;2023-05-10T04:27:42;7.72;;;3.60;;
33654;SDS011;19997;51.274;22.506;2023-05-10T04:30:09;8.65;;;3.70;;
33654;SDS011;19997;51.274;22.506;2023-05-10T04:32:37;7.22;;;3.40;;
33654;SDS011;19997;51.274;22.506;2023-05-10T04:35:04;8.77;;;3.80;;
33654;SDS011;19997;51.274;22.506;2023-05-10T04:37:32;9.68;;;3.83;;
33654;SDS011;19997;51.274;22.506;2023-05-10T04:39:59;11.60;;;3.28;;
33654;SDS011;19997;51.274;22.506;2023-05-10T04:42:29;8.20;;;3.95;;
33654;SDS011;19997;51.274;22.506;2023-05-10T04:44:57;7.97;;;3.38;;
33654;SDS011;19997;51.274;22.506;2023-05-10T04:47:24;6.55;;;2.97;;
33654;SDS011;19997;51.274;22.506;2023-05-10T04:49:51;9.40;;;3.05;;
33654;SDS011;19997;51.274;22.506;2023-05-10T04:52:19;10.77;;;3.50;;
33654;SDS011;19997;51.274;22.506;2023-05-10T04:54:46;11.95;;;3.53;;
33654;SDS011;19997;51.274;22.506;2023-05-10T04:57:13;8.70;;;3.45;;
33654;SDS011;19997;51.274;22.506;2023-05-10T04:59:41;10.45;;;4.07;;
33654;SDS011;19997;51.274;22.506;2023-05-10T05:02:08;6.15;;;3.55;;
33654;SDS011;19997;51.274;22.506;2023-05-10T05:04:35;6.13;;;3.25;;
33654;SDS011;19997;51.274;22.506;2023-05-10T05:07:03;6.90;;;3.45;;
33654;SDS011;19997;51.274;22.506;2023-05-10T05:09:30;7.90;;;3.70;;
33654;SDS011;19997;51.274;22.506;2023-05-10T05:12:01;10.10;;;4.50;;
33654;SDS011;19997;51.274;22.506;2023-05-10T05:14:31;6.38;;;3.55;;
33654;SDS011;19997;51.274;22.506;2023-05-10T05:17:01;7.95;;;3.30;;
33654;SDS011;19997;51.274;22.506;2023-05-10T05:19:32;8.30;;;3.50;;
33654;SDS011;19997;51.274;22.506;2023-05-10T05:21:59;7.85;;;3.72;;
33654;SDS011;19997;51.274;22.506;2023-05-10T05:24:26;11.60;;;3.47;;
33654;SDS011;19997;51.274;22.506;2023-05-10T05:26:53;6.53;;;3.00;;
33654;SDS011;19997;51.274;22.506;2023-05-10T05:29:20;5.47;;;3.47;;
33654;SDS011;19997;51.274;22.506;2023-05-10T05:31:48;11.88;;;3.83;;
33654;SDS011;19997;51.274;22.506;2023-05-10T05:34:17;9.02;;;3.15;;
33654;SDS011;19997;51.274;22.506;2023-05-10T05:36:45;11.18;;;3.65;;
33654;SDS011;19997;51.274;22.506;2023-05-10T05:39:13;9.75;;;3.10;;
33654;SDS011;19997;51.274;22.506;2023-05-10T05:41:40;9.45;;;3.45;;
33654;SDS011;19997;51.274;22.506;2023-05-10T05:44:08;9.70;;;3.83;;
33654;SDS011;19997;51.274;22.506;2023-05-10T05:46:36;8.82;;;3.53;;
33654;SDS011;19997;51.274;22.506;2023-05-10T05:49:03;12.45;;;3.00;;
33654;SDS011;19997;51.274;22.506;2023-05-10T05:54:03;5.85;;;2.83;;
33654;SDS011;19997;51.274;22.506;2023-05-10T05:56:33;5.35;;;3.08;;
33654;SDS011;19997;51.274;22.506;2023-05-10T05:59:00;9.65;;;2.88;;
33654;SDS011;19997;51.274;22.506;2023-05-10T06:01:28;10.43;;;3.20;;
33654;SDS011;19997;51.274;22.506;2023-05-10T06:03:59;9.52;;;3.15;;
33654;SDS011;19997;51.274;22.506;2023-05-10T06:06:27;4.63;;;3.05;;
33654;SDS011;19997;51.274;22.506;2023-05-10T06:08:56;10.63;;;5.07;;
33654;SDS011;19997;51.274;22.506;2023-05-10T06:11:23;10.60;;;3.10;;
33654;SDS011;19997;51.274;22.506;2023-05-10T06:13:50;14.05;;;4.22;;
33654;SDS011;19997;51.274;22.506;2023-05-10T06:16:17;8.98;;;3.80;;
33654;SDS011;19997;51.274;22.506;2023-05-10T06:18:45;12.20;;;4.55;;
33654;SDS011;19997;51.274;22.506;2023-05-10T06:21:12;7.75;;;3.05;;
33654;SDS011;19997;51.274;22.506;2023-05-10T06:23:40;6.80;;;2.90;;
33654;SDS011;19997;51.274;22.506;2023-05-10T06:26:09;6.20;;;3.13;;
33654;SDS011;19997;51.274;22.506;2023-05-10T06:28:36;13.73;;;3.70;;
33654;SDS011;19997;51.274;22.506;2023-05-10T06:31:04;27.83;;;5.88;;
33654;SDS011;19997;51.274;22.506;2023-05-10T06:33:31;9.25;;;3.28;;
33654;SDS011;19997;51.274;22.506;2023-05-10T06:36:00;10.02;;;3.95;;
33654;SDS011;19997;51.274;22.506;2023-05-10T06:38:29;9.38;;;3.65;;
33654;SDS011;19997;51.274;22.506;2023-05-10T06:40:59;14.52;;;4.68;;
33654;SDS011;19997;51.274;22.506;2023-05-10T06:43:30;11.27;;;2.92;;
33654;SDS011;19997;51.274;22.506;2023-05-10T06:45:58;10.00;;;3.67;;
33654;SDS011;19997;51.274;22.506;2023-05-10T06:48:25;6.75;;;3.20;;
33654;SDS011;19997;51.274;22.506;2023-05-10T06:50:52;11.77;;;3.25;;
33654;SDS011;19997;51.274;22.506;2023-05-10T06:53:20;10.98;;;2.78;;
33654;SDS011;19997;51.274;22.506;2023-05-10T06:55:48;3.95;;;2.72;;
33654;SDS011;19997;51.274;22.506;2023-05-10T06:58:18;8.63;;;3.13;;
33654;SDS011;19997;51.274;22.506;2023-05-10T07:00:48;15.93;;;4.25;;
33654;SDS011;19997;51.274;22.506;2023-05-10T07:03:15;6.10;;;2.47;;
33654;SDS011;19997;51.274;22.506;2023-05-10T07:05:44;8.25;;;2.30;;
33654;SDS011;19997;51.274;22.506;2023-05-10T07:08:12;6.57;;;2.67;;
33654;SDS011;19997;51.274;22.506;2023-05-10T07:10:39;8.93;;;3.33;;
33654;SDS011;19997;51.274;22.506;2023-05-10T07:13:08;9.65;;;3.03;;
33654;SDS011;19997;51.274;22.506;2023-05-10T07:15:36;13.88;;;3.28;;
33654;SDS011;19997;51.274;22.506;2023-05-10T07:18:04;8.98;;;4.05;;
33654;SDS011;19997;51.274;22.506;2023-05-10T07:20:32;17.15;;;3.33;;
33654;SDS011;19997;51.274;22.506;2023-05-10T07:23:01;7.20;;;2.55;;
33654;SDS011;19997;51.274;22.506;2023-05-10T07:25:29;12.82;;;3.30;;
33654;SDS011;19997;51.274;22.506;2023-05-10T07:27:56;5.57;;;2.70;;
33654;SDS011;19997;51.274;22.506;2023-05-10T07:30:23;11.15;;;2.78;;
33654;SDS011;19997;51.274;22.506;2023-05-10T07:32:54;10.77;;;3.35;;
33654;SDS011;19997;51.274;22.506;2023-05-10T07:35:25;11.65;;;2.50;;
33654;SDS011;19997;51.274;22.506;2023-05-10T07:37:53;7.32;;;2.30;;
33654;SDS011;19997;51.274;22.506;2023-05-10T07:40:20;4.82;;;2.45;;
33654;SDS011;19997;51.274;22.506;2023-05-10T07:42:48;3.90;;;2.05;;
33654;SDS011;19997;51.274;22.506;2023-05-10T07:45:16;5.75;;;2.55;;
33654;SDS011;19997;51.274;22.506;2023-05-10T07:47:43;9.13;;;2.67;;
33654;SDS011;19997;51.274;22.506;2023-05-10T07:50:10;7.40;;;2.42;;
33654;SDS011;19997;51.274;22.506;2023-05-10T07:52:39;6.10;;;2.03;;
33654;SDS011;19997;51.274;22.506;2023-05-10T07:55:07;5.35;;;2.55;;
33654;SDS011;19997;51.274;22.506;2023-05-10T07:57:35;8.65;;;3.17;;
33654;SDS011;19997;51.274;22.506;2023-05-10T08:00:06;8.18;;;2.05;;
33654;SDS011;19997;51.274;22.506;2023-05-10T08:02:39;3.50;;;1.92;;
33654;SDS011;19997;51.274;22.506;2023-05-10T08:05:07;5.68;;;2.50;;
33654;SDS011;19997;51.274;22.506;2023-05-10T08:07:36;10.68;;;3.33;;
33654;SDS011;19997;51.274;22.506;2023-05-10T08:10:05;4.75;;;2.15;;
33654;SDS011;19997;51.274;22.506;2023-05-10T08:12:33;3.45;;;1.83;;
33654;SDS011;19997;51.274;22.506;2023-05-10T08:15:01;9.25;;;2.13;;
33654;SDS011;19997;51.274;22.506;2023-05-10T08:17:28;5.97;;;1.98;;
33654;SDS011;19997;51.274;22.506;2023-05-10T08:19:57;5.72;;;1.67;;
33654;SDS011;19997;51.274;22.506;2023-05-10T08:22:24;5.10;;;1.67;;
33654;SDS011;19997;51.274;22.506;2023-05-10T08:24:52;7.80;;;1.83;;
33654;SDS011;19997;51.274;22.506;2023-05-10T08:27:27;5.40;;;1.90;;
33654;SDS011;19997;51.274;22.506;2023-05-10T08:29:59;5.72;;;2.10;;
33654;SDS011;19997;51.274;22.506;2023-05-10T08:32:26;3.53;;;2.00;;
33654;SDS011;19997;51.274;22.506;2023-05-10T08:34:59;10.68;;;2.25;;
33654;SDS011;19997;51.274;22.506;2023-05-10T08:37:29;3.75;;;2.05;;
33654;SDS011;19997;51.274;22.506;2023-05-10T08:40:01;5.32;;;2.20;;
33654;SDS011;19997;51.274;22.506;2023-05-10T08:42:34;7.25;;;2.30;;
33654;SDS011;19997;51.274;22.506;2023-05-10T08:45:07;9.43;;;2.30;;
33654;SDS011;19997;51.274;22.506;2023-05-10T08:47:39;4.30;;;1.45;;
33654;SDS011;19997;51.274;22.506;2023-05-10T08:50:10;9.25;;;2.22;;
33654;SDS011;19997;51.274;22.506;2023-05-10T08:52:41;5.55;;;1.88;;
33654;SDS011;19997;51.274;22.506;2023-05-10T08:55:09;5.30;;;1.88;;
33654;SDS011;19997;51.274;22.506;2023-05-10T08:57:48;12.90;;;4.22;;
33654;SDS011;19997;51.274;22.506;2023-05-10T09:00:16;11.00;;;2.17;;
33654;SDS011;19997;51.274;22.506;2023-05-10T09:02:49;3.28;;;1.67;;
33654;SDS011;19997;51.274;22.506;2023-05-10T09:05:17;16.85;;;2.88;;
33654;SDS011;19997;51.274;22.506;2023-05-10T09:07:44;4.65;;;2.58;;
33654;SDS011;19997;51.274;22.506;2023-05-10T09:10:12;7.18;;;1.65;;
33654;SDS011;19997;51.274;22.506;2023-05-10T09:12:41;6.00;;;1.90;;
33654;SDS011;19997;51.274;22.506;2023-05-10T09:15:11;3.05;;;1.83;;
33654;SDS011;19997;51.274;22.506;2023-05-10T09:17:45;2.72;;;1.45;;
33654;SDS011;19997;51.274;22.506;2023-05-10T09:20:14;3.42;;;1.70;;
33654;SDS011;19997;51.274;22.506;2023-05-10T09:22:42;4.47;;;2.63;;
33654;SDS011;19997;51.274;22.506;2023-05-10T09:25:11;2.38;;;1.65;;
33654;SDS011;19997;51.274;22.506;2023-05-10T09:27:44;10.35;;;3.58;;
33654;SDS011;19997;51.274;22.506;2023-05-10T09:30:24;4.10;;;2.13;;
33654;SDS011;19997;51.274;22.506;2023-05-10T09:32:52;3.50;;;1.77;;
33654;SDS011;19997;51.274;22.506;2023-05-10T09:35:21;3.30;;;1.90;;
33654;SDS011;19997;51.274;22.506;2023-05-10T09:37:50;8.13;;;1.90;;
33654;SDS011;19997;51.274;22.506;2023-05-10T09:40:22;5.32;;;1.70;;
33654;SDS011;19997;51.274;22.506;2023-05-10T09:42:52;3.50;;;1.90;;
33654;SDS011;19997;51.274;22.506;2023-05-10T09:45:22;3.60;;;1.65;;
33654;SDS011;19997;51.274;22.506;2023-05-10T09:47:50;4.83;;;1.73;;
33654;SDS011;19997;51.274;22.506;2023-05-10T09:50:20;7.83;;;1.70;;
33654;SDS011;19997;51.274;22.506;2023-05-10T09:52:48;5.07;;;1.70;;
33654;SDS011;19997;51.274;22.506;2023-05-10T09:55:17;6.25;;;2.30;;
33654;SDS011;19997;51.274;22.506;2023-05-10T09:57:45;2.70;;;1.42;;
33654;SDS011;19997;51.274;22.506;2023-05-10T10:00:17;3.97;;;2.15;;
33654;SDS011;19997;51.274;22.506;2023-05-10T10:02:46;3.53;;;1.92;;
33654;SDS011;19997;51.274;22.506;2023-05-10T10:05:14;6.07;;;1.90;;
33654;SDS011;19997;51.274;22.506;2023-05-10T10:07:41;9.00;;;1.77;;
33654;SDS011;19997;51.274;22.506;2023-05-10T10:10:09;5.97;;;2.30;;
33654;SDS011;19997;51.274;22.506;2023-05-10T10:12:40;3.47;;;2.08;;
33654;SDS011;19997;51.274;22.506;2023-05-10T10:15:08;4.25;;;2.03;;
33654;SDS011;19997;51.274;22.506;2023-05-10T10:17:36;4.65;;;2.00;;
33654;SDS011;19997;51.274;22.506;2023-05-10T10:20:06;4.20;;;2.22;;
33654;SDS011;19997;51.274;22.506;2023-05-10T10:22:34;4.43;;;1.90;;
33654;SDS011;19997;51.274;22.506;2023-05-10T10:25:04;2.97;;;2.58;;
33654;SDS011;19997;51.274;22.506;2023-05-10T10:27:35;6.38;;;2.75;;
33654;SDS011;19997;51.274;22.506;2023-05-10T10:30:13;2.75;;;1.80;;
33654;SDS011;19997;51.274;22.506;2023-05-10T10:33:01;8.15;;;1.85;;
33654;SDS011;19997;51.274;22.506;2023-05-10T10:35:46;4.75;;;2.63;;
33654;SDS011;19997;51.274;22.506;2023-05-10T10:38:13;3.13;;;1.85;;
33654;SDS011;19997;51.274;22.506;2023-05-10T10:40:40;6.30;;;1.92;;
33654;SDS011;19997;51.274;22.506;2023-05-10T10:43:23;2.67;;;1.60;;
33654;SDS011;19997;51.274;22.506;2023-05-10T10:48:37;4.65;;;2.10;;
33654;SDS011;19997;51.274;22.506;2023-05-10T10:51:06;2.60;;;1.50;;
33654;SDS011;19997;51.274;22.506;2023-05-10T10:53:34;5.22;;;1.98;;
33654;SDS011;19997;51.274;22.506;2023-05-10T10:56:05;10.93;;;2.27;;
33654;SDS011;19997;51.274;22.506;2023-05-10T10:58:34;8.93;;;2.00;;
33654;SDS011;19997;51.274;22.506;2023-05-10T11:01:12;4.88;;;2.03;;
33654;SDS011;19997;51.274;22.506;2023-05-10T11:03:40;6.90;;;2.53;;
33654;SDS011;19997;51.274;22.506;2023-05-10T11:06:29;3.60;;;1.77;;
33654;SDS011;19997;51.274;22.506;2023-05-10T11:08:58;5.88;;;1.85;;
33654;SDS011;19997;51.274;22.506;2023-05-10T11:11:26;5.28;;;2.25;;
33654;SDS011;19997;51.274;22.506;2023-05-10T11:13:53;2.75;;;1.70;;
33654;SDS011;19997;51.274;22.506;2023-05-10T11:16:30;1.90;;;1.70;;
33654;SDS011;19997;51.274;22.506;2023-05-10T11:19:09;4.03;;;1.70;;
33654;SDS011;19997;51.274;22.506;2023-05-10T11:21:45;5.15;;;1.75;;
33654;SDS011;19997;51.274;22.506;2023-05-10T11:24:15;6.57;;;1.52;;
33654;SDS011;19997;51.274;22.506;2023-05-10T11:26:42;4.30;;;1.70;;
33654;SDS011;19997;51.274;22.506;2023-05-10T11:29:12;2.75;;;1.60;;
33654;SDS011;19997;51.274;22.506;2023-05-10T11:31:43;5.18;;;1.75;;
33654;SDS011;19997;51.274;22.506;2023-05-10T11:34:12;2.22;;;1.63;;
33654;SDS011;19997;51.274;22.506;2023-05-10T11:36:52;4.78;;;2.28;;
33654;SDS011;19997;51.274;22.506;2023-05-10T11:39:20;6.13;;;1.77;;
33654;SDS011;19997;51.274;22.506;2023-05-10T11:41:48;1.88;;;1.58;;
33654;SDS011;19997;51.274;22.506;2023-05-10T11:44:16;6.45;;;1.55;;
33654;SDS011;19997;51.274;22.506;2023-05-10T11:46:43;4.50;;;1.40;;
33654;SDS011;19997;51.274;22.506;2023-05-10T11:49:10;8.90;;;2.15;;
33654;SDS011;19997;51.274;22.506;2023-05-10T11:51:38;2.85;;;1.40;;
33654;SDS011;19997;51.274;22.506;2023-05-10T11:54:09;6.60;;;2.53;;
33654;SDS011;19997;51.274;22.506;2023-05-10T11:56:37;2.15;;;1.30;;
33654;SDS011;19997;51.274;22.506;2023-05-10T11:59:07;4.68;;;1.35;;
33654;SDS011;19997;51.274;22.506;2023-05-10T12:01:34;3.00;;;1.25;;
33654;SDS011;19997;51.274;22.506;2023-05-10T12:04:01;3.38;;;1.55;;
33654;SDS011;19997;51.274;22.506;2023-05-10T12:06:29;3.60;;;1.50;;
33654;SDS011;19997;51.274;22.506;2023-05-10T12:08:57;1.70;;;1.60;;
33654;SDS011;19997;51.274;22.506;2023-05-10T12:11:26;4.28;;;1.48;;
33654;SDS011;19997;51.274;22.506;2023-05-10T12:13:55;2.30;;;1.65;;
33654;SDS011;19997;51.274;22.506;2023-05-10T12:16:22;3.17;;;1.80;;
33654;SDS011;19997;51.274;22.506;2023-05-10T12:18:54;2.50;;;1.50;;
33654;SDS011;19997;51.274;22.506;2023-05-10T12:21:23;3.20;;;1.42;;
33654;SDS011;19997;51.274;22.506;2023-05-10T12:23:51;8.15;;;1.55;;
33654;SDS011;19997;51.274;22.506;2023-05-10T12:26:21;4.03;;;1.60;;
33654;SDS011;19997;51.274;22.506;2023-05-10T12:28:50;4.63;;;1.77;;
33654;SDS011;19997;51.274;22.506;2023-05-10T12:31:18;3.88;;;1.70;;
33654;SDS011;19997;51.274;22.506;2023-05-10T12:33:46;6.43;;;1.83;;
33654;SDS011;19997;51.274;22.506;2023-05-10T12:36:14;3.45;;;1.73;;
33654;SDS011;19997;51.274;22.506;2023-05-10T12:38:43;2.55;;;1.65;;
33654;SDS011;19997;51.274;22.506;2023-05-10T12:41:13;1.88;;;1.40;;
33654;SDS011;19997;51.274;22.506;2023-05-10T12:43:41;3.60;;;1.63;;
33654;SDS011;19997;51.274;22.506;2023-05-10T12:46:10;2.88;;;2.60;;
33654;SDS011;19997;51.274;22.506;2023-05-10T12:48:38;2.50;;;1.70;;
33654;SDS011;19997;51.274;22.506;2023-05-10T12:51:06;3.78;;;1.67;;
33654;SDS011;19997;51.274;22.506;2023-05-10T12:53:37;2.45;;;1.75;;
33654;SDS011;19997;51.274;22.506;2023-05-10T12:56:05;3.13;;;1.48;;
33654;SDS011;19997;51.274;22.506;2023-05-10T12:58:34;3.80;;;1.55;;
33654;SDS011;19997;51.274;22.506;2023-05-10T13:01:01;3.28;;;1.73;;
33654;SDS011;19997;51.274;22.506;2023-05-10T13:03:30;4.22;;;1.70;;
33654;SDS011;19997;51.274;22.506;2023-05-10T13:05:57;5.07;;;1.75;;
33654;SDS011;19997;51.274;22.506;2023-05-10T13:08:24;5.47;;;1.60;;
33654;SDS011;19997;51.274;22.506;2023-05-10T13:10:52;2.03;;;1.52;;
33654;SDS011;19997;51.274;22.506;2023-05-10T13:13:19;1.75;;;1.25;;
33654;SDS011;19997;51.274;22.506;2023-05-10T13:15:46;3.60;;;1.70;;
33654;SDS011;19997;51.274;22.506;2023-05-10T13:18:13;5.70;;;1.55;;
33654;SDS011;19997;51.274;22.506;2023-05-10T13:20:41;3.00;;;1.65;;
33654;SDS011;19997;51.274;22.506;2023-05-10T13:23:09;3.72;;;1.92;;
33654;SDS011;19997;51.274;22.506;2023-05-10T13:25:36;2.67;;;1.58;;
33654;SDS011;19997;51.274;22.506;2023-05-10T13:28:04;1.83;;;1.48;;
33654;SDS011;19997;51.274;22.506;2023-05-10T13:30:31;4.25;;;2.42;;
33654;SDS011;19997;51.274;22.506;2023-05-10T13:32:58;2.08;;;1.50;;
33654;SDS011;19997;51.274;22.506;2023-05-10T13:35:25;4.72;;;1.85;;
33654;SDS011;19997;51.274;22.506;2023-05-10T13:37:53;3.25;;;1.63;;
33654;SDS011;19997;51.274;22.506;2023-05-10T13:40:22;4.28;;;2.05;;
33654;SDS011;19997;51.274;22.506;2023-05-10T13:42:49;5.25;;;1.67;;
33654;SDS011;19997;51.274;22.506;2023-05-10T13:45:16;5.25;;;1.38;;
33654;SDS011;19997;51.274;22.506;2023-05-10T13:47:43;2.55;;;1.42;;
33654;SDS011;19997;51.274;22.506;2023-05-10T13:50:10;5.40;;;2.17;;
33654;SDS011;19997;51.274;22.506;2023-05-10T13:52:38;3.47;;;1.35;;
33654;SDS011;19997;51.274;22.506;2023-05-10T13:55:09;4.78;;;1.70;;
33654;SDS011;19997;51.274;22.506;2023-05-10T13:57:37;6.13;;;1.63;;
33654;SDS011;19997;51.274;22.506;2023-05-10T14:00:06;4.25;;;1.25;;
33654;SDS011;19997;51.274;22.506;2023-05-10T14:02:33;2.45;;;1.40;;
33654;SDS011;19997;51.274;22.506;2023-05-10T14:05:00;3.80;;;1.60;;
33654;SDS011;19997;51.274;22.506;2023-05-10T14:07:28;2.42;;;1.50;;
33654;SDS011;19997;51.274;22.506;2023-05-10T14:09:55;2.35;;;1.48;;
33654;SDS011;19997;51.274;22.506;2023-05-10T14:12:24;3.65;;;1.60;;
33654;SDS011;19997;51.274;22.506;2023-05-10T14:14:51;6.75;;;1.70;;
33654;SDS011;19997;51.274;22.506;2023-05-10T14:17:18;3.60;;;1.30;;
33654;SDS011;19997;51.274;22.506;2023-05-10T14:19:45;1.50;;;1.30;;
33654;SDS011;19997;51.274;22.506;2023-05-10T14:22:12;2.30;;;1.75;;
33654;SDS011;19997;51.274;22.506;2023-05-10T14:24:40;2.00;;;1.42;;
33654;SDS011;19997;51.274;22.506;2023-05-10T14:27:08;4.38;;;1.65;;
33654;SDS011;19997;51.274;22.506;2023-05-10T14:29:37;4.03;;;1.50;;
33654;SDS011;19997;51.274;22.506;2023-05-10T14:32:04;3.40;;;1.75;;
33654;SDS011;19997;51.274;22.506;2023-05-10T14:34:31;2.60;;;1.23;;
33654;SDS011;19997;51.274;22.506;2023-05-10T14:36:59;6.22;;;1.63;;
33654;SDS011;19997;51.274;22.506;2023-05-10T14:39:27;6.70;;;2.28;;
33654;SDS011;19997;51.274;22.506;2023-05-10T14:41:55;4.65;;;1.40;;
33654;SDS011;19997;51.274;22.506;2023-05-10T14:44:22;2.00;;;1.52;;
33654;SDS011;19997;51.274;22.506;2023-05-10T14:46:51;2.55;;;1.40;;
33654;SDS011;19997;51.274;22.506;2023-05-10T14:49:18;7.47;;;1.80;;
33654;SDS011;19997;51.274;22.506;2023-05-10T14:51:47;2.53;;;1.42;;
33654;SDS011;19997;51.274;22.506;2023-05-10T14:54:15;1.65;;;1.50;;
33654;SDS011;19997;51.274;22.506;2023-05-10T14:56:42;2.45;;;1.40;;
33654;SDS011;19997;51.274;22.506;2023-05-10T14:59:09;2.58;;;1.73;;
33654;SDS011;19997;51.274;22.506;2023-05-10T15:01:36;2.92;;;1.80;;